Curtin, Oregon
Current Conditions -  °F | °C
As of 3:54 PM on Saturday 20 Dec 2014 (Local Time) from KEUG Reporting Station
Light Rain Light Rain  
Wind Chill: 54°   Ceiling: 4200
Heat Index: 54°   Visibility: 5mi
Dew Point: 51°   Wind: 14mph
Humidity: 90%   Direction: 180°S
Pressure: 29.78"   Gusts: NA
Location:  43.72°N, 123.21°W
Report Text: KEUG 202354Z 18012KT 5SM -RA BR BKN042 BKN075 OVC090 12/11 A2978 RMK AO2 SLP083 P0014 60057 T01220106 10122 20100 53006
Loading
Personal Weather Stations






























Interactive Weather Map New forecast layout! Learn more

10-Day Weather Forecast

Advertisements
Track Severe Weather on mobile